createdAt,value
2017-12-27T00:02:25.436Z,8.15
2017-12-27T00:04:57.402Z,8.48
2017-12-27T00:07:29.244Z,8.27
2017-12-27T00:10:01.095Z,9.00
2017-12-27T00:12:32.946Z,9.35
2017-12-27T00:15:04.726Z,8.65
2017-12-27T00:17:36.554Z,8.50
2017-12-27T00:20:08.306Z,10.25
2017-12-27T00:22:40.094Z,9.75
2017-12-27T00:25:11.943Z,9.93
2017-12-27T00:27:43.721Z,9.93
2017-12-27T00:30:15.779Z,10.90
2017-12-27T00:32:41.523Z,10.35
2017-12-27T00:35:07.256Z,10.07
2017-12-27T00:37:32.994Z,9.37
2017-12-27T00:39:58.738Z,10.17
2017-12-27T00:42:24.463Z,9.43
2017-12-27T00:44:50.220Z,9.43
2017-12-27T00:47:15.980Z,8.50
2017-12-27T00:49:41.735Z,10.07
2017-12-27T00:52:07.490Z,10.07
2017-12-27T00:54:33.242Z,10.60
2017-12-27T00:56:58.994Z,10.97
2017-12-27T00:59:24.738Z,10.20
2017-12-27T01:01:50.486Z,10.37
2017-12-27T01:04:16.227Z,9.43
2017-12-27T01:06:41.974Z,8.57
2017-12-27T01:09:07.715Z,9.10
2017-12-27T01:11:33.454Z,9.40
2017-12-27T01:13:59.315Z,9.43
2017-12-27T01:16:25.066Z,9.63
2017-12-27T01:18:50.807Z,9.13
2017-12-27T01:21:16.558Z,8.70
2017-12-27T01:23:42.302Z,8.23
2017-12-27T01:26:08.046Z,9.63
2017-12-27T01:28:33.778Z,9.30
2017-12-27T01:30:59.537Z,8.80
2017-12-27T01:33:25.278Z,9.53
2017-12-27T01:35:51.012Z,8.63
2017-12-27T01:38:16.763Z,7.83
2017-12-27T01:40:42.503Z,7.13
2017-12-27T01:43:08.250Z,7.13
2017-12-27T01:45:34.000Z,7.77
2017-12-27T01:47:59.747Z,7.30
2017-12-27T01:50:25.509Z,7.07
2017-12-27T01:52:51.265Z,7.10
2017-12-27T01:55:17.014Z,7.10
2017-12-27T01:57:42.745Z,7.20
2017-12-27T02:00:08.486Z,7.03
2017-12-27T02:02:34.244Z,6.57
2017-12-27T02:04:59.992Z,6.47
2017-12-27T02:07:25.758Z,6.57
2017-12-27T02:09:51.503Z,7.00
2017-12-27T02:12:17.248Z,6.00
2017-12-27T02:14:42.973Z,6.40
2017-12-27T02:17:08.722Z,5.70
2017-12-27T02:19:34.451Z,5.80
2017-12-27T02:22:00.189Z,5.27
2017-12-27T02:24:25.938Z,5.70
2017-12-27T02:26:51.667Z,5.10
2017-12-27T02:29:17.426Z,4.60
2017-12-27T02:31:43.172Z,4.50
2017-12-27T02:34:08.929Z,4.40
2017-12-27T02:36:34.670Z,3.87
2017-12-27T02:39:00.411Z,4.00
2017-12-27T02:41:26.376Z,3.73
2017-12-27T02:43:52.134Z,2.97
2017-12-27T02:46:17.862Z,4.37
2017-12-27T02:48:43.606Z,3.37
2017-12-27T02:51:09.332Z,3.50
2017-12-27T02:53:35.050Z,3.40
2017-12-27T02:56:00.795Z,3.00
2017-12-27T02:58:26.524Z,3.00
2017-12-27T03:00:52.276Z,3.40
2017-12-27T03:03:18.026Z,3.10
2017-12-27T03:05:43.758Z,3.17
2017-12-27T03:08:09.491Z,3.20
2017-12-27T03:10:35.239Z,3.30
2017-12-27T03:13:00.958Z,3.77
2017-12-27T03:15:26.717Z,3.90
2017-12-27T03:17:52.458Z,4.13
2017-12-27T03:20:18.199Z,4.37
2017-12-27T03:22:43.983Z,3.83
2017-12-27T03:25:09.747Z,4.00
2017-12-27T03:27:35.483Z,4.17
2017-12-27T03:30:01.212Z,4.13
2017-12-27T03:32:26.970Z,3.87
2017-12-27T03:34:52.715Z,3.87
2017-12-27T03:37:18.444Z,3.67
2017-12-27T03:39:44.192Z,4.07
2017-12-27T03:42:09.917Z,3.70
2017-12-27T03:44:35.656Z,3.80
2017-12-27T03:47:01.394Z,3.50
2017-12-27T03:49:27.126Z,3.50
2017-12-27T03:51:52.866Z,3.50
2017-12-27T03:54:18.598Z,3.23
2017-12-27T03:56:44.332Z,3.10
2017-12-27T03:59:10.062Z,3.00
2017-12-27T04:01:35.790Z,2.77
2017-12-27T04:04:01.511Z,3.10
2017-12-27T04:06:27.245Z,3.23
2017-12-27T04:08:52.975Z,3.10
2017-12-27T04:11:18.731Z,3.27
2017-12-27T04:13:44.478Z,3.83
2017-12-27T04:16:10.206Z,3.13
2017-12-27T04:18:35.938Z,2.73
2017-12-27T04:21:01.670Z,2.90
2017-12-27T04:23:27.403Z,2.80
2017-12-27T04:25:53.126Z,2.43
2017-12-27T04:28:18.870Z,2.73
2017-12-27T04:30:44.590Z,2.80
2017-12-27T04:33:10.334Z,3.13
2017-12-27T04:35:36.053Z,2.70
2017-12-27T04:38:01.790Z,3.03
2017-12-27T04:40:27.530Z,2.50
2017-12-27T04:42:53.270Z,2.93
2017-12-27T04:45:19.017Z,2.80
2017-12-27T04:47:44.783Z,2.63
2017-12-27T04:50:10.532Z,2.83
2017-12-27T04:52:36.291Z,2.60
2017-12-27T04:55:02.018Z,2.60
2017-12-27T04:57:27.768Z,2.40
2017-12-27T04:59:53.516Z,2.50
2017-12-27T05:02:19.275Z,2.47
2017-12-27T05:04:45.018Z,2.83
2017-12-27T05:07:10.742Z,2.43
2017-12-27T05:09:36.483Z,2.40
2017-12-27T05:12:02.226Z,2.37
2017-12-27T05:14:28.058Z,2.17
2017-12-27T05:16:53.807Z,2.33
2017-12-27T05:19:19.566Z,2.40
2017-12-27T05:21:45.298Z,2.80
2017-12-27T05:24:11.046Z,2.73
2017-12-27T05:26:36.828Z,2.63
2017-12-27T05:29:02.568Z,2.57
2017-12-27T05:31:28.306Z,2.40
2017-12-27T05:33:54.097Z,2.20
2017-12-27T05:36:19.818Z,2.43
2017-12-27T05:38:45.570Z,2.20
2017-12-27T05:41:11.310Z,2.20
2017-12-27T05:43:37.068Z,2.30
2017-12-27T05:46:02.831Z,2.40
2017-12-27T05:48:28.582Z,2.30
2017-12-27T05:50:54.331Z,1.93
2017-12-27T05:53:20.070Z,2.30
2017-12-27T05:55:45.814Z,2.30
2017-12-27T05:58:11.543Z,2.40
2017-12-27T06:00:37.302Z,2.20
2017-12-27T06:03:03.032Z,2.10
2017-12-27T06:05:28.774Z,2.00
2017-12-27T06:07:54.535Z,2.30
2017-12-27T06:10:20.266Z,2.50
2017-12-27T06:12:45.990Z,2.30
2017-12-27T06:15:11.730Z,2.13
2017-12-27T06:17:37.454Z,2.13
2017-12-27T06:20:03.202Z,2.10
2017-12-27T06:22:28.929Z,2.33
2017-12-27T06:24:54.664Z,2.03
2017-12-27T06:27:20.408Z,2.10
2017-12-27T06:29:46.138Z,2.40
2017-12-27T06:32:11.882Z,2.50
2017-12-27T06:34:37.614Z,2.30
2017-12-27T06:37:03.359Z,2.37
2017-12-27T06:39:29.081Z,2.30
2017-12-27T06:41:54.826Z,2.20
2017-12-27T06:44:20.562Z,2.40
2017-12-27T06:46:46.306Z,2.67
2017-12-27T06:49:12.043Z,2.30
2017-12-27T06:51:37.791Z,3.67
2017-12-27T06:54:03.527Z,2.40
2017-12-27T06:56:29.279Z,2.40
2017-12-27T06:58:55.026Z,2.50
2017-12-27T07:01:20.782Z,2.47
2017-12-27T07:03:46.530Z,2.40
2017-12-27T07:06:12.266Z,2.30
2017-12-27T07:08:38.026Z,2.40
2017-12-27T07:11:03.751Z,2.13
2017-12-27T07:13:29.486Z,2.60
2017-12-27T07:15:55.235Z,2.30
2017-12-27T07:18:20.990Z,2.13
2017-12-27T07:20:46.731Z,2.30
2017-12-27T07:23:12.498Z,2.20
2017-12-27T07:25:38.240Z,3.00
2017-12-27T07:28:04.030Z,2.30
2017-12-27T07:30:29.771Z,2.60
2017-12-27T07:32:55.510Z,2.80
2017-12-27T07:35:21.239Z,2.60
2017-12-27T07:37:46.991Z,2.97
2017-12-27T07:40:12.733Z,3.07
2017-12-27T07:42:38.491Z,2.53
2017-12-27T07:45:04.255Z,3.00
2017-12-27T07:47:30.033Z,2.90
2017-12-27T07:49:55.791Z,2.27
2017-12-27T07:52:21.545Z,2.70
2017-12-27T07:54:47.299Z,2.63
2017-12-27T07:57:13.066Z,3.20
2017-12-27T07:59:38.814Z,2.80
2017-12-27T08:02:04.570Z,3.13
2017-12-27T08:04:30.326Z,3.17
2017-12-27T08:06:56.062Z,2.87
2017-12-27T08:09:21.818Z,2.87
2017-12-27T08:11:47.549Z,3.13
2017-12-27T08:14:13.301Z,3.33
2017-12-27T08:16:39.051Z,3.00
2017-12-27T08:19:04.818Z,3.00
2017-12-27T08:21:30.566Z,3.30
2017-12-27T08:23:56.310Z,3.43
2017-12-27T08:26:22.055Z,4.17
2017-12-27T08:28:47.787Z,3.10
2017-12-27T08:31:13.530Z,4.17
2017-12-27T08:33:39.258Z,2.97
2017-12-27T08:36:05.002Z,3.23
2017-12-27T08:38:30.740Z,4.27
2017-12-27T08:40:56.494Z,2.90
2017-12-27T08:43:22.238Z,4.43
2017-12-27T08:45:47.999Z,4.30
2017-12-27T08:48:13.743Z,2.50
2017-12-27T08:50:39.485Z,3.07
2017-12-27T08:53:05.235Z,3.50
2017-12-27T08:55:31.009Z,8.60
2017-12-27T08:57:56.759Z,2.70
2017-12-27T09:00:22.494Z,7.90
2017-12-27T09:02:48.238Z,8.63
2017-12-27T09:05:13.978Z,5.40
2017-12-27T09:07:39.732Z,5.73
2017-12-27T09:10:05.474Z,3.60
2017-12-27T09:12:31.211Z,5.27
2017-12-27T09:14:56.962Z,2.63
2017-12-27T09:17:22.737Z,3.80
2017-12-27T09:19:48.486Z,3.97
2017-12-27T09:22:14.246Z,3.30
2017-12-27T09:24:39.982Z,3.20
2017-12-27T09:27:05.738Z,4.23
2017-12-27T09:29:31.473Z,13.47
2017-12-27T09:31:57.200Z,4.10
2017-12-27T09:34:22.939Z,6.17
2017-12-27T09:36:48.687Z,2.20
2017-12-27T09:39:14.432Z,3.47
2017-12-27T09:41:40.162Z,3.30
2017-12-27T09:44:05.963Z,2.40
2017-12-27T09:46:31.689Z,2.67
2017-12-27T09:48:57.435Z,2.13
2017-12-27T09:51:23.183Z,3.10
2017-12-27T09:53:48.916Z,2.07
2017-12-27T09:56:14.647Z,2.17
2017-12-27T09:58:40.404Z,6.03
2017-12-27T10:01:06.131Z,7.00
2017-12-27T10:03:31.867Z,2.67
2017-12-27T10:05:57.627Z,2.80
2017-12-27T10:08:23.366Z,3.17
2017-12-27T10:10:49.123Z,3.30
2017-12-27T10:13:14.858Z,3.20
2017-12-27T10:15:40.606Z,3.10
2017-12-27T10:18:06.342Z,3.27
2017-12-27T10:20:32.199Z,2.93
2017-12-27T10:22:57.955Z,3.20
2017-12-27T10:25:23.788Z,2.40
2017-12-27T10:27:49.542Z,5.70
2017-12-27T10:30:15.307Z,2.70
2017-12-27T10:32:41.076Z,1.97
2017-12-27T10:35:06.855Z,3.30
2017-12-27T10:37:32.606Z,3.80
2017-12-27T10:39:58.386Z,2.77
2017-12-27T10:42:24.125Z,2.63
2017-12-27T10:44:49.891Z,2.70
2017-12-27T10:47:15.672Z,2.60
2017-12-27T10:49:41.437Z,3.10
2017-12-27T10:52:07.186Z,2.30
2017-12-27T10:54:32.922Z,2.37
2017-12-27T10:56:58.675Z,2.57
2017-12-27T10:59:24.415Z,2.43
2017-12-27T11:01:50.168Z,2.90
2017-12-27T11:04:15.906Z,2.87
2017-12-27T11:06:41.667Z,3.50
2017-12-27T11:09:07.411Z,3.07
2017-12-27T11:11:33.164Z,3.27
2017-12-27T11:13:58.910Z,3.90
2017-12-27T11:16:24.643Z,4.63
2017-12-27T11:18:50.382Z,3.13
2017-12-27T11:21:16.122Z,6.00
2017-12-27T11:23:41.874Z,4.10
2017-12-27T11:26:07.615Z,5.23
2017-12-27T11:28:33.358Z,4.90
2017-12-27T11:30:59.098Z,4.60
2017-12-27T11:33:24.856Z,2.20
2017-12-27T11:35:50.655Z,3.80
2017-12-27T11:38:16.442Z,2.20
2017-12-27T11:40:42.183Z,2.80
2017-12-27T11:43:07.951Z,2.07
2017-12-27T11:45:33.702Z,2.20
2017-12-27T11:47:59.430Z,2.83
2017-12-27T11:50:25.186Z,2.80
2017-12-27T11:52:50.956Z,2.33
2017-12-27T11:55:16.722Z,2.10
2017-12-27T11:57:42.484Z,2.57
2017-12-27T12:00:08.230Z,2.90
2017-12-27T12:02:34.004Z,2.50
2017-12-27T12:04:59.770Z,2.03
2017-12-27T12:07:25.518Z,2.20
2017-12-27T12:09:51.287Z,2.20
2017-12-27T12:12:17.047Z,2.73
2017-12-27T12:14:42.820Z,2.93
2017-12-27T12:17:08.554Z,3.63
2017-12-27T12:19:34.298Z,3.73
2017-12-27T12:22:00.042Z,3.30
2017-12-27T12:24:25.798Z,2.27
2017-12-27T12:26:51.582Z,2.57
2017-12-27T12:29:17.385Z,3.50
2017-12-27T12:31:43.111Z,2.50
2017-12-27T12:34:08.851Z,2.40
2017-12-27T12:36:34.594Z,2.60
2017-12-27T12:39:00.342Z,2.40
2017-12-27T12:41:26.090Z,2.37
2017-12-27T12:43:51.829Z,2.60
2017-12-27T12:46:17.594Z,2.63
2017-12-27T12:48:43.326Z,2.90
2017-12-27T12:51:09.062Z,2.63
2017-12-27T12:53:34.822Z,3.10
2017-12-27T12:56:00.554Z,2.40
2017-12-27T12:58:26.326Z,3.90
2017-12-27T13:00:52.061Z,2.53
2017-12-27T13:03:17.802Z,2.83
2017-12-27T13:05:43.555Z,2.70
2017-12-27T13:08:09.318Z,2.50
2017-12-27T13:10:35.075Z,2.50
2017-12-27T13:13:00.842Z,2.40
2017-12-27T13:15:26.580Z,2.93
2017-12-27T13:17:52.336Z,2.67
2017-12-27T13:20:18.090Z,2.10
2017-12-27T13:22:43.875Z,2.73
2017-12-27T13:25:09.655Z,2.73
2017-12-27T13:27:36.022Z,2.73
2017-12-27T13:30:01.779Z,2.37
2017-12-27T13:32:27.544Z,2.87
2017-12-27T13:34:53.303Z,2.40
2017-12-27T13:37:19.043Z,2.40
2017-12-27T13:39:44.800Z,3.23
2017-12-27T13:42:10.553Z,2.80
2017-12-27T13:44:36.314Z,2.67
2017-12-27T13:47:02.066Z,2.90
2017-12-27T13:49:27.831Z,2.40
2017-12-27T13:51:53.562Z,2.90
2017-12-27T13:54:19.338Z,3.07
2017-12-27T13:56:45.070Z,2.53
2017-12-27T13:59:10.819Z,3.67
2017-12-27T14:01:36.547Z,3.10
2017-12-27T14:04:02.302Z,2.30
2017-12-27T14:06:28.051Z,2.90
2017-12-27T14:08:53.791Z,2.60
2017-12-27T14:11:19.605Z,2.90
2017-12-27T14:13:45.347Z,3.40
2017-12-27T14:16:11.095Z,3.10
2017-12-27T14:18:36.822Z,4.60
2017-12-27T14:21:02.579Z,3.73
2017-12-27T14:23:28.332Z,3.07
2017-12-27T14:25:54.076Z,2.93
2017-12-27T14:28:19.812Z,3.07
2017-12-27T14:30:45.575Z,3.10
2017-12-27T14:33:11.322Z,3.00
2017-12-27T14:35:37.071Z,3.07
2017-12-27T14:38:02.820Z,2.67
2017-12-27T14:40:28.571Z,3.50
2017-12-27T14:42:54.314Z,4.07
2017-12-27T14:45:20.076Z,4.17
2017-12-27T14:47:45.852Z,4.50
2017-12-27T14:50:11.656Z,3.93
2017-12-27T14:52:37.407Z,2.97
2017-12-27T14:55:03.189Z,3.00
2017-12-27T14:57:28.939Z,2.90
2017-12-27T14:59:54.682Z,2.80
2017-12-27T15:02:20.446Z,3.30
2017-12-27T15:04:46.198Z,3.20
2017-12-27T15:07:11.959Z,3.00
2017-12-27T15:09:37.702Z,3.40
2017-12-27T15:12:03.469Z,3.27
2017-12-27T15:14:29.213Z,4.20
2017-12-27T15:16:54.964Z,3.80
2017-12-27T15:19:20.740Z,3.30
2017-12-27T15:21:46.507Z,3.10
2017-12-27T15:24:12.279Z,3.40
2017-12-27T15:26:38.010Z,4.67
2017-12-27T15:29:03.762Z,3.70
2017-12-27T15:31:29.490Z,3.20
2017-12-27T15:33:55.250Z,3.40
2017-12-27T15:36:21.006Z,3.50
2017-12-27T15:38:46.754Z,3.03
2017-12-27T15:41:12.487Z,3.67
2017-12-27T15:43:38.263Z,3.77
2017-12-27T15:46:04.027Z,3.20
2017-12-27T15:48:29.787Z,3.37
2017-12-27T15:50:55.534Z,4.20
2017-12-27T15:53:21.267Z,4.40
2017-12-27T15:55:47.006Z,4.10
2017-12-27T15:58:12.746Z,3.90
2017-12-27T16:00:38.510Z,3.57
2017-12-27T16:03:04.241Z,3.80
2017-12-27T16:05:29.986Z,3.97
2017-12-27T16:07:56.710Z,3.93
2017-12-27T16:10:22.518Z,3.60
2017-12-27T16:12:48.243Z,3.50
2017-12-27T16:15:13.999Z,4.23
2017-12-27T16:17:39.763Z,3.67
2017-12-27T16:20:05.519Z,4.43
2017-12-27T16:22:31.274Z,4.00
2017-12-27T16:24:57.010Z,4.40
2017-12-27T16:27:22.764Z,3.80
2017-12-27T16:29:48.499Z,4.10
2017-12-27T16:32:14.244Z,4.30
2017-12-27T16:34:39.986Z,4.37
2017-12-27T16:37:05.765Z,5.53
2017-12-27T16:39:31.487Z,5.30
2017-12-27T16:41:57.230Z,5.23
2017-12-27T16:44:23.002Z,5.73
2017-12-27T16:46:48.768Z,5.63
2017-12-27T16:49:14.528Z,5.30
2017-12-27T16:51:40.306Z,4.97
2017-12-27T16:54:06.063Z,5.30
2017-12-27T16:56:31.795Z,4.63
2017-12-27T16:58:57.532Z,4.63
2017-12-27T17:01:23.278Z,4.50
2017-12-27T17:03:49.022Z,4.03
2017-12-27T17:06:14.760Z,4.17
2017-12-27T17:08:40.522Z,4.20
2017-12-27T17:11:06.286Z,5.87
2017-12-27T17:13:32.048Z,4.77
2017-12-27T17:15:57.790Z,4.50
2017-12-27T17:18:23.793Z,3.60
2017-12-27T17:20:49.665Z,4.10
2017-12-27T17:23:15.442Z,3.77
2017-12-27T17:25:41.184Z,5.07
2017-12-27T17:28:06.923Z,4.63
2017-12-27T17:30:32.693Z,4.10
2017-12-27T17:32:58.454Z,3.70
2017-12-27T17:35:24.190Z,4.20
2017-12-27T17:37:49.954Z,4.90
2017-12-27T17:40:15.691Z,4.10
2017-12-27T17:42:41.427Z,4.20
2017-12-27T17:45:07.187Z,4.10
2017-12-27T17:47:32.963Z,3.90
2017-12-27T17:49:58.782Z,4.83
2017-12-27T17:52:24.520Z,4.63
2017-12-27T17:54:51.075Z,4.57
2017-12-27T17:57:16.831Z,4.50
2017-12-27T17:59:42.602Z,4.70
2017-12-27T18:02:08.359Z,4.90
2017-12-27T18:04:34.118Z,4.87
2017-12-27T18:06:59.863Z,4.57
2017-12-27T18:09:25.602Z,5.97
2017-12-27T18:11:51.359Z,5.60
2017-12-27T18:14:17.109Z,5.27
2017-12-27T18:16:42.846Z,5.00
2017-12-27T18:19:08.595Z,5.57
2017-12-27T18:21:34.350Z,5.57
2017-12-27T18:24:00.101Z,5.30
2017-12-27T18:26:25.856Z,5.40
2017-12-27T18:28:51.606Z,5.93
2017-12-27T18:31:17.357Z,5.47
2017-12-27T18:33:43.110Z,5.10
2017-12-27T18:36:08.862Z,5.20
2017-12-27T18:38:34.601Z,5.67
2017-12-27T18:41:00.342Z,5.70
2017-12-27T18:43:26.078Z,6.37
2017-12-27T18:45:52.646Z,10.43
2017-12-27T18:48:18.379Z,7.70
2017-12-27T18:50:44.123Z,7.30
2017-12-27T18:53:09.870Z,6.70
2017-12-27T18:55:35.625Z,6.57
2017-12-27T18:58:01.383Z,6.30
2017-12-27T19:00:27.154Z,6.90
2017-12-27T19:02:52.918Z,7.17
2017-12-27T19:05:18.682Z,6.67
2017-12-27T19:07:44.440Z,7.70
2017-12-27T19:10:10.205Z,6.83
2017-12-27T19:12:35.955Z,6.50
2017-12-27T19:15:01.682Z,6.13
2017-12-27T19:17:27.466Z,6.03
2017-12-27T19:19:53.202Z,6.23
2017-12-27T19:22:18.943Z,6.60
2017-12-27T19:24:44.685Z,6.13
2017-12-27T19:27:10.423Z,6.30
2017-12-27T19:29:36.162Z,6.10
2017-12-27T19:32:01.902Z,7.33
2017-12-27T19:34:27.655Z,15.40
2017-12-27T19:36:53.423Z,18.83
2017-12-27T19:39:19.178Z,6.33
2017-12-27T19:41:44.911Z,6.60
2017-12-27T19:44:12.099Z,7.10
2017-12-27T19:46:38.999Z,7.50
2017-12-27T19:49:06.143Z,7.40
2017-12-27T19:51:33.790Z,7.78
2017-12-27T19:54:00.091Z,6.05
2017-12-27T19:56:27.140Z,6.75
2017-12-27T19:58:54.597Z,6.15
2017-12-27T20:01:21.732Z,5.93
2017-12-27T20:03:48.619Z,7.72
2017-12-27T20:06:15.882Z,7.18
2017-12-27T20:08:43.425Z,6.80
2017-12-27T20:11:10.663Z,6.87
2017-12-27T20:13:36.403Z,7.40
2017-12-27T20:16:03.764Z,7.67
2017-12-27T20:18:29.947Z,7.12
2017-12-27T20:20:57.194Z,7.82
2017-12-27T20:23:24.322Z,7.10
2017-12-27T20:25:51.776Z,7.78
2017-12-27T20:28:19.243Z,7.28
2017-12-27T20:30:46.193Z,7.35
2017-12-27T20:33:13.370Z,8.00
2017-12-27T20:35:40.398Z,8.48
2017-12-27T20:38:07.356Z,10.07
2017-12-27T20:40:34.489Z,9.43
2017-12-27T20:43:01.467Z,10.23
2017-12-27T20:45:28.779Z,12.02
2017-12-27T20:47:56.645Z,11.30
2017-12-27T20:50:23.919Z,10.73
2017-12-27T20:52:50.481Z,10.40
2017-12-27T20:55:17.656Z,8.68
2017-12-27T20:57:44.819Z,9.43
2017-12-27T21:00:11.501Z,10.13
2017-12-27T21:02:37.317Z,9.45
2017-12-27T21:05:04.658Z,8.63
2017-12-27T21:07:31.863Z,9.13
2017-12-27T21:09:58.991Z,9.18
2017-12-27T21:12:24.774Z,9.85
2017-12-27T21:14:50.510Z,8.67
2017-12-27T21:17:16.441Z,8.73
2017-12-27T21:19:42.173Z,9.00
2017-12-27T21:22:07.920Z,8.90
2017-12-27T21:24:33.663Z,9.17
2017-12-27T21:26:59.662Z,9.43
2017-12-27T21:29:25.406Z,10.05
2017-12-27T21:31:51.611Z,10.23
2017-12-27T21:34:17.358Z,10.07
2017-12-27T21:36:43.093Z,10.33
2017-12-27T21:39:08.862Z,10.40
2017-12-27T21:41:34.613Z,10.40
2017-12-27T21:44:00.374Z,9.80
2017-12-27T21:46:26.131Z,9.87
2017-12-27T21:51:51.683Z,10.07
2017-12-27T21:54:17.422Z,14.07
2017-12-27T21:56:43.151Z,11.67
2017-12-27T21:59:14.826Z,11.70
2017-12-27T22:01:42.465Z,10.43
2017-12-27T22:04:08.198Z,10.82
2017-12-27T22:06:33.939Z,10.37
2017-12-27T22:08:59.678Z,11.00
2017-12-27T22:11:25.409Z,10.77
2017-12-27T22:13:51.164Z,9.57
2017-12-27T22:16:16.940Z,11.10
2017-12-27T22:18:42.674Z,10.80
2017-12-27T22:21:08.402Z,10.37
2017-12-27T22:23:34.156Z,10.77
2017-12-27T22:25:59.882Z,11.77
2017-12-27T22:28:25.636Z,10.50
2017-12-27T22:30:51.394Z,11.20
2017-12-27T22:33:17.150Z,10.53
2017-12-27T22:35:42.914Z,11.07
2017-12-27T22:38:08.643Z,10.53
2017-12-27T22:40:34.398Z,10.73
2017-12-27T22:43:00.150Z,10.10
2017-12-27T22:45:25.930Z,9.93
2017-12-27T22:47:52.507Z,10.37
2017-12-27T22:50:18.262Z,10.07
2017-12-27T22:52:44.012Z,10.00
2017-12-27T22:55:09.750Z,9.83
2017-12-27T22:57:35.498Z,10.63
2017-12-27T23:00:01.249Z,9.57
2017-12-27T23:02:27.083Z,9.73
2017-12-27T23:04:52.840Z,9.40
2017-12-27T23:07:18.578Z,10.30
2017-12-27T23:09:44.319Z,9.70
2017-12-27T23:12:10.073Z,8.97
2017-12-27T23:14:35.810Z,9.07
2017-12-27T23:17:01.542Z,9.20
2017-12-27T23:19:27.274Z,9.20
2017-12-27T23:21:53.011Z,9.10
2017-12-27T23:24:18.749Z,8.60
2017-12-27T23:26:44.495Z,9.13
2017-12-27T23:29:10.223Z,9.17
2017-12-27T23:31:35.981Z,8.90
2017-12-27T23:34:01.722Z,8.90
2017-12-27T23:36:27.474Z,8.80
2017-12-27T23:38:53.204Z,8.83
2017-12-27T23:41:18.942Z,8.63
2017-12-27T23:43:44.700Z,8.57
2017-12-27T23:46:10.491Z,8.53
2017-12-27T23:48:36.239Z,8.50
2017-12-27T23:51:01.983Z,8.33
2017-12-27T23:53:27.734Z,8.83
2017-12-27T23:55:53.476Z,8.20
2017-12-27T23:58:19.246Z,8.80
